RYR2HU EIDW-LFBH
Flight info
| Callsign | RYR2HU |
|---|---|
| Flight time | 1h 33m |
| Altitude | 31000 |
| Route | PESIT2J PESIT DCT BAKUR DCT GUBJE DCT GISOK DCT TACQI DCT MANIG DCT BADUR DCT KORER UM616 NTS A25 LUSON |
| Aircraft | B738/M-SDE2E3FGHIRWXY/LB1 |
Departure
| Time | 2026-05-01 07:24 |
|---|---|
| Airport | Dublin Airport (EIDW) |
Arrival
| Time | 2026-05-01 08:58 |
|---|---|
| Airport | La Rochelle Île de Ré Airport (LFBH) |
| Time | Latitude | Longitude | Altitude | Speed | Heading |
|---|---|---|---|---|---|
| 2026-05-01 07:23 | 53.43513 | -6.24543 | 212 ft | 5 kts | 4° |
| 2026-05-01 07:23 | 53.43526 | -6.24620 | 216 ft | 7 kts | 275° |
| 2026-05-01 07:24 | 53.43552 | -6.25079 | 211 ft | 78 kts | 275° |
| 2026-05-01 07:24 | 53.43624 | -6.26384 | 212 ft | 144 kts | 275° |
| 2026-05-01 07:24 | 53.43730 | -6.28276 | 562 ft | 171 kts | 274° |
| 2026-05-01 07:24 | 53.43876 | -6.30310 | 1314 ft | 182 kts | 276° |
| 2026-05-01 07:25 | 53.44128 | -6.32430 | 2212 ft | 180 kts | 281° |
| 2026-05-01 07:25 | 53.44528 | -6.34331 | 3203 ft | 184 kts | 299° |
| 2026-05-01 07:25 | 53.45611 | -6.35843 | 3461 ft | 222 kts | 333° |
| 2026-05-01 07:25 | 53.46895 | -6.37454 | 3672 ft | 243 kts | 303° |
| 2026-05-01 07:26 | 53.47941 | -6.39786 | 4133 ft | 262 kts | 307° |
| 2026-05-01 07:26 | 53.49209 | -6.42155 | 4740 ft | 278 kts | 310° |
| 2026-05-01 07:26 | 53.50555 | -6.44529 | 5554 ft | 285 kts | 308° |
| 2026-05-01 07:26 | 53.51499 | -6.47419 | 6376 ft | 282 kts | 278° |
| 2026-05-01 07:27 | 53.51543 | -6.50633 | 7234 ft | 273 kts | 251° |
| 2026-05-01 07:27 | 53.50771 | -6.53455 | 8120 ft | 264 kts | 227° |
| 2026-05-01 07:27 | 53.49407 | -6.55451 | 8762 ft | 260 kts | 205° |
| 2026-05-01 07:27 | 53.47694 | -6.56312 | 9084 ft | 259 kts | 184° |
| 2026-05-01 07:28 | 53.45912 | -6.56048 | 9105 ft | 258 kts | 164° |
| 2026-05-01 07:28 | 53.44227 | -6.54957 | 9109 ft | 261 kts | 158° |
| 2026-05-01 07:28 | 53.42548 | -6.53717 | 9352 ft | 266 kts | 158° |
| 2026-05-01 07:28 | 53.40852 | -6.52451 | 10264 ft | 265 kts | 158° |
| 2026-05-01 07:29 | 53.39124 | -6.51174 | 10766 ft | 282 kts | 158° |
| 2026-05-01 07:29 | 53.37236 | -6.49797 | 10961 ft | 308 kts | 158° |
| 2026-05-01 07:29 | 53.35220 | -6.48337 | 11420 ft | 321 kts | 158° |
| 2026-05-01 07:29 | 53.33151 | -6.46843 | 12139 ft | 326 kts | 158° |
| 2026-05-01 07:30 | 53.31056 | -6.45330 | 12953 ft | 329 kts | 158° |
| 2026-05-01 07:30 | 53.28953 | -6.43740 | 13743 ft | 333 kts | 156° |
| 2026-05-01 07:30 | 53.26841 | -6.42098 | 14433 ft | 337 kts | 156° |
| 2026-05-01 07:30 | 53.24709 | -6.40431 | 15130 ft | 340 kts | 156° |
| 2026-05-01 07:31 | 53.22560 | -6.38754 | 15869 ft | 342 kts | 156° |
| 2026-05-01 07:31 | 53.16004 | -6.33672 | 17940 ft | 351 kts | 157° |
| 2026-05-01 07:32 | 53.11527 | -6.30223 | 19194 ft | 357 kts | 157° |
| 2026-05-01 07:32 | 53.09262 | -6.28481 | 19794 ft | 360 kts | 157° |
| 2026-05-01 07:33 | 53.04703 | -6.24981 | 20966 ft | 366 kts | 157° |
| 2026-05-01 07:33 | 53.02384 | -6.23203 | 21555 ft | 368 kts | 157° |
| 2026-05-01 07:33 | 52.97687 | -6.19608 | 22653 ft | 375 kts | 157° |
| 2026-05-01 07:34 | 52.95313 | -6.17796 | 23198 ft | 377 kts | 157° |
| 2026-05-01 07:34 | 52.90509 | -6.14114 | 24161 ft | 383 kts | 157° |
| 2026-05-01 07:34 | 52.88084 | -6.12251 | 24595 ft | 386 kts | 157° |
| 2026-05-01 07:35 | 52.85640 | -6.10375 | 25018 ft | 388 kts | 157° |
| 2026-05-01 07:35 | 52.83181 | -6.08489 | 25482 ft | 389 kts | 157° |
| 2026-05-01 07:35 | 52.80728 | -6.06611 | 26059 ft | 387 kts | 157° |
| 2026-05-01 07:35 | 52.78294 | -6.04748 | 26674 ft | 384 kts | 157° |
| 2026-05-01 07:36 | 52.75872 | -6.02899 | 27228 ft | 383 kts | 157° |
| 2026-05-01 07:36 | 52.73453 | -6.01054 | 27737 ft | 383 kts | 157° |
| 2026-05-01 07:36 | 52.71036 | -5.99214 | 28266 ft | 382 kts | 157° |
| 2026-05-01 07:36 | 52.68627 | -5.97382 | 28827 ft | 380 kts | 157° |
| 2026-05-01 07:37 | 52.63835 | -5.93744 | 29885 ft | 379 kts | 157° |
| 2026-05-01 07:37 | 52.61441 | -5.91930 | 30362 ft | 378 kts | 157° |
| 2026-05-01 07:37 | 52.59053 | -5.90123 | 30799 ft | 377 kts | 157° |
| 2026-05-01 07:38 | 52.56669 | -5.88321 | 31115 ft | 378 kts | 157° |
| 2026-05-01 07:38 | 52.54286 | -5.86521 | 31109 ft | 375 kts | 157° |
| 2026-05-01 07:39 | 52.47152 | -5.81146 | 31147 ft | 378 kts | 157° |
| 2026-05-01 07:39 | 52.39956 | -5.75779 | 31148 ft | 379 kts | 160° |
| 2026-05-01 07:40 | 52.34964 | -5.73226 | 31138 ft | 378 kts | 165° |
| 2026-05-01 07:40 | 52.29914 | -5.70797 | 31142 ft | 378 kts | 165° |
| 2026-05-01 07:41 | 52.24877 | -5.68334 | 31144 ft | 377 kts | 164° |
| 2026-05-01 07:42 | 52.18345 | -5.64112 | 31149 ft | 377 kts | 159° |
| 2026-05-01 07:42 | 52.13546 | -5.60840 | 31150 ft | 377 kts | 159° |
| 2026-05-01 07:43 | 52.08701 | -5.57579 | 31151 ft | 377 kts | 159° |
| 2026-05-01 07:43 | 52.01438 | -5.52523 | 31154 ft | 378 kts | 156° |
| 2026-05-01 07:44 | 51.92014 | -5.44998 | 31157 ft | 379 kts | 156° |
| 2026-05-01 07:45 | 51.87277 | -5.41251 | 31160 ft | 379 kts | 156° |
| 2026-05-01 07:45 | 51.82520 | -5.37517 | 31156 ft | 380 kts | 156° |
| 2026-05-01 07:46 | 51.77761 | -5.33794 | 31163 ft | 380 kts | 156° |
| 2026-05-01 07:47 | 51.70612 | -5.28219 | 31163 ft | 380 kts | 156° |
| 2026-05-01 07:47 | 51.65841 | -5.24508 | 31164 ft | 381 kts | 156° |
| 2026-05-01 07:48 | 51.58717 | -5.18982 | 31167 ft | 381 kts | 156° |
| 2026-05-01 07:48 | 51.53946 | -5.15292 | 31171 ft | 381 kts | 156° |
| 2026-05-01 07:49 | 51.47230 | -5.08429 | 31168 ft | 383 kts | 147° |
| 2026-05-01 07:50 | 51.42893 | -5.03443 | 31171 ft | 383 kts | 147° |
| 2026-05-01 07:50 | 51.36365 | -4.96036 | 31173 ft | 384 kts | 147° |
| 2026-05-01 07:51 | 51.31995 | -4.91125 | 31173 ft | 384 kts | 147° |
| 2026-05-01 07:52 | 51.25427 | -4.83775 | 31183 ft | 384 kts | 147° |
| 2026-05-01 07:52 | 51.21067 | -4.78913 | 31185 ft | 385 kts | 147° |
| 2026-05-01 07:53 | 51.14474 | -4.71580 | 31177 ft | 385 kts | 147° |
| 2026-05-01 07:53 | 51.10077 | -4.66706 | 31176 ft | 385 kts | 147° |
| 2026-05-01 07:55 | 50.99101 | -4.54586 | 31185 ft | 386 kts | 147° |
| 2026-05-01 07:56 | 50.88041 | -4.42444 | 31180 ft | 388 kts | 147° |
| 2026-05-01 07:57 | 50.81374 | -4.35160 | 31185 ft | 388 kts | 147° |
| 2026-05-01 07:58 | 50.72461 | -4.25460 | 31181 ft | 389 kts | 147° |
| 2026-05-01 07:59 | 50.63570 | -4.15831 | 31186 ft | 389 kts | 147° |
| 2026-05-01 08:00 | 50.50156 | -4.01388 | 31185 ft | 389 kts | 147° |
| 2026-05-01 08:01 | 50.41205 | -3.91807 | 31192 ft | 390 kts | 147° |
| 2026-05-01 08:02 | 50.34495 | -3.84653 | 31189 ft | 391 kts | 147° |
| 2026-05-01 08:03 | 50.27755 | -3.77493 | 31188 ft | 391 kts | 147° |
| 2026-05-01 08:03 | 50.20983 | -3.70323 | 31188 ft | 392 kts | 147° |
| 2026-05-01 08:04 | 50.11953 | -3.60802 | 31192 ft | 392 kts | 147° |
| 2026-05-01 08:05 | 50.05171 | -3.53679 | 31197 ft | 392 kts | 147° |
| 2026-05-01 08:06 | 49.98420 | -3.46614 | 31200 ft | 392 kts | 147° |
| 2026-05-01 08:07 | 49.89349 | -3.37157 | 31204 ft | 393 kts | 148° |
| 2026-05-01 08:08 | 49.82540 | -3.30085 | 31204 ft | 393 kts | 148° |
| 2026-05-01 08:08 | 49.77825 | -3.26008 | 31205 ft | 390 kts | 160° |
| 2026-05-01 08:09 | 49.72573 | -3.24034 | 31212 ft | 389 kts | 170° |
| 2026-05-01 08:09 | 49.67246 | -3.22545 | 31204 ft | 389 kts | 170° |
| 2026-05-01 08:10 | 49.56647 | -3.19527 | 31213 ft | 390 kts | 170° |
| 2026-05-01 08:11 | 49.45979 | -3.16437 | 31214 ft | 390 kts | 169° |
| 2026-05-01 08:12 | 49.37963 | -3.14121 | 31207 ft | 391 kts | 169° |
| 2026-05-01 08:13 | 49.29943 | -3.11812 | 31210 ft | 391 kts | 169° |
| 2026-05-01 08:13 | 49.21956 | -3.09520 | 31212 ft | 391 kts | 169° |
| 2026-05-01 08:14 | 49.16573 | -3.07980 | 31217 ft | 391 kts | 170° |
| 2026-05-01 08:14 | 49.11254 | -3.06461 | 31217 ft | 391 kts | 170° |
| 2026-05-01 08:15 | 49.03222 | -3.04174 | 31224 ft | 392 kts | 170° |
| 2026-05-01 08:16 | 48.97927 | -3.02670 | 31215 ft | 392 kts | 170° |
| 2026-05-01 08:16 | 48.92562 | -3.01150 | 31216 ft | 392 kts | 170° |
| 2026-05-01 08:17 | 48.87194 | -2.99632 | 31220 ft | 392 kts | 170° |
| 2026-05-01 08:17 | 48.81823 | -2.98117 | 31215 ft | 393 kts | 170° |
| 2026-05-01 08:18 | 48.76440 | -2.96601 | 31211 ft | 393 kts | 170° |
| 2026-05-01 08:19 | 48.65808 | -2.92860 | 31208 ft | 394 kts | 164° |
| 2026-05-01 08:19 | 48.60554 | -2.90451 | 31206 ft | 395 kts | 163° |
| 2026-05-01 08:20 | 48.55293 | -2.88065 | 31219 ft | 395 kts | 164° |
| 2026-05-01 08:20 | 48.50013 | -2.85703 | 31219 ft | 395 kts | 164° |
| 2026-05-01 08:21 | 48.44733 | -2.83359 | 31211 ft | 395 kts | 164° |
| 2026-05-01 08:21 | 48.39452 | -2.81022 | 31213 ft | 396 kts | 164° |
| 2026-05-01 08:22 | 48.34170 | -2.78690 | 31214 ft | 396 kts | 164° |
| 2026-05-01 08:22 | 48.28921 | -2.76378 | 31213 ft | 396 kts | 164° |
| 2026-05-01 08:23 | 48.23633 | -2.74052 | 31211 ft | 396 kts | 164° |
| 2026-05-01 08:23 | 48.18343 | -2.71731 | 31216 ft | 396 kts | 164° |
| 2026-05-01 08:24 | 48.13045 | -2.69412 | 31214 ft | 397 kts | 164° |
| 2026-05-01 08:24 | 48.07747 | -2.67097 | 31217 ft | 397 kts | 164° |
| 2026-05-01 08:25 | 48.02445 | -2.64785 | 31206 ft | 393 kts | 164° |
| 2026-05-01 08:25 | 47.97363 | -2.62574 | 31210 ft | 380 kts | 164° |
| 2026-05-01 08:26 | 47.92273 | -2.60364 | 31136 ft | 383 kts | 164° |
| 2026-05-01 08:26 | 47.89716 | -2.59256 | 30865 ft | 380 kts | 164° |
| 2026-05-01 08:26 | 47.87194 | -2.58164 | 30527 ft | 376 kts | 164° |
| 2026-05-01 08:26 | 47.84688 | -2.57079 | 30175 ft | 373 kts | 164° |
| 2026-05-01 08:27 | 47.82204 | -2.56006 | 29774 ft | 370 kts | 164° |
| 2026-05-01 08:27 | 47.79750 | -2.54946 | 29413 ft | 366 kts | 164° |
| 2026-05-01 08:27 | 47.77312 | -2.53893 | 29059 ft | 362 kts | 164° |
| 2026-05-01 08:27 | 47.74901 | -2.52855 | 28679 ft | 359 kts | 164° |
| 2026-05-01 08:28 | 47.72510 | -2.51825 | 28357 ft | 357 kts | 164° |
| 2026-05-01 08:28 | 47.70200 | -2.50640 | 27994 ft | 355 kts | 154° |
| 2026-05-01 08:28 | 47.68078 | -2.48773 | 27677 ft | 357 kts | 144° |
| 2026-05-01 08:28 | 47.66202 | -2.46324 | 27307 ft | 360 kts | 133° |
| 2026-05-01 08:29 | 47.64545 | -2.43550 | 26960 ft | 358 kts | 131° |
| 2026-05-01 08:29 | 47.62935 | -2.40743 | 26602 ft | 355 kts | 131° |
| 2026-05-01 08:29 | 47.61347 | -2.37956 | 26258 ft | 353 kts | 131° |
| 2026-05-01 08:29 | 47.59767 | -2.35200 | 25916 ft | 350 kts | 131° |
| 2026-05-01 08:30 | 47.58721 | -2.33385 | 25691 ft | 348 kts | 131° |
| 2026-05-01 08:30 | 47.57148 | -2.30673 | 25358 ft | 346 kts | 131° |
| 2026-05-01 08:30 | 47.55579 | -2.27981 | 25027 ft | 344 kts | 131° |
| 2026-05-01 08:30 | 47.54019 | -2.25314 | 24694 ft | 342 kts | 131° |
| 2026-05-01 08:31 | 47.52466 | -2.22665 | 24369 ft | 340 kts | 131° |
| 2026-05-01 08:31 | 47.50922 | -2.20034 | 24034 ft | 339 kts | 131° |
| 2026-05-01 08:31 | 47.49374 | -2.17402 | 23690 ft | 337 kts | 131° |
| 2026-05-01 08:31 | 47.47819 | -2.14760 | 23298 ft | 335 kts | 131° |
| 2026-05-01 08:32 | 47.46293 | -2.12168 | 22950 ft | 333 kts | 131° |
| 2026-05-01 08:32 | 47.44802 | -2.09639 | 22620 ft | 330 kts | 131° |
| 2026-05-01 08:32 | 47.43300 | -2.07095 | 22295 ft | 327 kts | 131° |
| 2026-05-01 08:32 | 47.41810 | -2.04572 | 21958 ft | 325 kts | 131° |
| 2026-05-01 08:33 | 47.40332 | -2.02071 | 21641 ft | 322 kts | 131° |
| 2026-05-01 08:33 | 47.38856 | -1.99576 | 21321 ft | 323 kts | 131° |
| 2026-05-01 08:33 | 47.37372 | -1.97071 | 21003 ft | 324 kts | 131° |
| 2026-05-01 08:33 | 47.35886 | -1.94566 | 20667 ft | 324 kts | 131° |
| 2026-05-01 08:34 | 47.34404 | -1.92067 | 20341 ft | 322 kts | 131° |
| 2026-05-01 08:34 | 47.32936 | -1.89591 | 20031 ft | 320 kts | 131° |
| 2026-05-01 08:34 | 47.31475 | -1.87126 | 19709 ft | 318 kts | 131° |
| 2026-05-01 08:34 | 47.30023 | -1.84677 | 19388 ft | 317 kts | 131° |
| 2026-05-01 08:35 | 47.28576 | -1.82238 | 19070 ft | 315 kts | 131° |
| 2026-05-01 08:35 | 47.27135 | -1.79812 | 18747 ft | 314 kts | 131° |
| 2026-05-01 08:35 | 47.25698 | -1.77395 | 18411 ft | 313 kts | 132° |
| 2026-05-01 08:35 | 47.24266 | -1.74988 | 18043 ft | 312 kts | 132° |
| 2026-05-01 08:36 | 47.22840 | -1.72593 | 17705 ft | 310 kts | 132° |
| 2026-05-01 08:36 | 47.21422 | -1.70212 | 17376 ft | 308 kts | 132° |
| 2026-05-01 08:36 | 47.20016 | -1.67856 | 17049 ft | 306 kts | 132° |
| 2026-05-01 08:36 | 47.18616 | -1.65511 | 16737 ft | 304 kts | 132° |
| 2026-05-01 08:37 | 47.17218 | -1.63189 | 16432 ft | 302 kts | 135° |
| 2026-05-01 08:37 | 47.15568 | -1.61316 | 16109 ft | 299 kts | 151° |
| 2026-05-01 08:37 | 47.13643 | -1.60193 | 15805 ft | 297 kts | 163° |
| 2026-05-01 08:37 | 47.11685 | -1.59394 | 15504 ft | 295 kts | 165° |
| 2026-05-01 08:38 | 47.09700 | -1.58636 | 15199 ft | 294 kts | 165° |
| 2026-05-01 08:38 | 47.07720 | -1.57883 | 14887 ft | 294 kts | 165° |
| 2026-05-01 08:38 | 47.05747 | -1.57127 | 14580 ft | 293 kts | 165° |
| 2026-05-01 08:38 | 47.03780 | -1.56365 | 14275 ft | 292 kts | 165° |
| 2026-05-01 08:39 | 47.01820 | -1.55599 | 13945 ft | 291 kts | 165° |
| 2026-05-01 08:39 | 46.99866 | -1.54831 | 13619 ft | 290 kts | 165° |
| 2026-05-01 08:39 | 46.97921 | -1.54065 | 13294 ft | 289 kts | 165° |
| 2026-05-01 08:39 | 46.95986 | -1.53301 | 12985 ft | 287 kts | 165° |
| 2026-05-01 08:40 | 46.92146 | -1.51783 | 12387 ft | 285 kts | 165° |
| 2026-05-01 08:40 | 46.90236 | -1.51028 | 12080 ft | 284 kts | 165° |
| 2026-05-01 08:40 | 46.88337 | -1.50278 | 11779 ft | 282 kts | 165° |
| 2026-05-01 08:41 | 46.86451 | -1.49533 | 11491 ft | 280 kts | 165° |
| 2026-05-01 08:41 | 46.84575 | -1.48793 | 11193 ft | 279 kts | 165° |
| 2026-05-01 08:41 | 46.82703 | -1.48055 | 10892 ft | 278 kts | 165° |
| 2026-05-01 08:41 | 46.80880 | -1.47336 | 10604 ft | 277 kts | 165° |
| 2026-05-01 08:42 | 46.79021 | -1.46604 | 10373 ft | 274 kts | 165° |
| 2026-05-01 08:42 | 46.77202 | -1.45888 | 10216 ft | 268 kts | 165° |
| 2026-05-01 08:42 | 46.75402 | -1.45179 | 9900 ft | 268 kts | 165° |
| 2026-05-01 08:42 | 46.73599 | -1.44471 | 9615 ft | 267 kts | 165° |
| 2026-05-01 08:43 | 46.71805 | -1.43766 | 9323 ft | 266 kts | 165° |
| 2026-05-01 08:43 | 46.70017 | -1.43064 | 9045 ft | 266 kts | 165° |
| 2026-05-01 08:43 | 46.68230 | -1.42363 | 8755 ft | 265 kts | 165° |
| 2026-05-01 08:43 | 46.66441 | -1.41661 | 8453 ft | 266 kts | 165° |
| 2026-05-01 08:44 | 46.64652 | -1.40960 | 8175 ft | 266 kts | 165° |
| 2026-05-01 08:44 | 46.62873 | -1.40264 | 7903 ft | 265 kts | 165° |
| 2026-05-01 08:44 | 46.61119 | -1.39578 | 7617 ft | 264 kts | 165° |
| 2026-05-01 08:44 | 46.59349 | -1.38883 | 7334 ft | 263 kts | 165° |
| 2026-05-01 08:45 | 46.57590 | -1.38172 | 7052 ft | 262 kts | 165° |
| 2026-05-01 08:45 | 46.55838 | -1.37462 | 6777 ft | 261 kts | 165° |
| 2026-05-01 08:45 | 46.54092 | -1.36755 | 6494 ft | 260 kts | 165° |
| 2026-05-01 08:45 | 46.52351 | -1.36051 | 6200 ft | 259 kts | 165° |
| 2026-05-01 08:46 | 46.50630 | -1.35280 | 5900 ft | 259 kts | 154° |
| 2026-05-01 08:46 | 46.49239 | -1.33666 | 5628 ft | 257 kts | 129° |
| 2026-05-01 08:46 | 46.49145 | -1.33500 | 5609 ft | 257 kts | 128° |
| 2026-05-01 08:47 | 46.48207 | -1.31660 | 5373 ft | 256 kts | 125° |
| 2026-05-01 08:47 | 46.47170 | -1.29538 | 5092 ft | 259 kts | 125° |
| 2026-05-01 08:47 | 46.46124 | -1.27399 | 4810 ft | 259 kts | 125° |
| 2026-05-01 08:47 | 46.45079 | -1.25273 | 4528 ft | 259 kts | 125° |
| 2026-05-01 08:48 | 46.44032 | -1.23156 | 4238 ft | 258 kts | 125° |
| 2026-05-01 08:48 | 46.42972 | -1.21025 | 3812 ft | 263 kts | 126° |
| 2026-05-01 08:48 | 46.41901 | -1.18875 | 3512 ft | 263 kts | 126° |
| 2026-05-01 08:48 | 46.40829 | -1.16730 | 3213 ft | 262 kts | 126° |
| 2026-05-01 08:49 | 46.39764 | -1.14605 | 2926 ft | 261 kts | 126° |
| 2026-05-01 08:49 | 46.38697 | -1.12476 | 2642 ft | 260 kts | 126° |
| 2026-05-01 08:49 | 46.37663 | -1.10417 | 2524 ft | 251 kts | 126° |
| 2026-05-01 08:49 | 46.36638 | -1.08380 | 2507 ft | 245 kts | 126° |
| 2026-05-01 08:50 | 46.35639 | -1.06393 | 2508 ft | 244 kts | 126° |
| 2026-05-01 08:50 | 46.34636 | -1.04402 | 2511 ft | 245 kts | 126° |
| 2026-05-01 08:50 | 46.33645 | -1.02434 | 2509 ft | 245 kts | 126° |
| 2026-05-01 08:50 | 46.32639 | -1.00437 | 2501 ft | 245 kts | 126° |
| 2026-05-01 08:51 | 46.31649 | -0.98471 | 2487 ft | 236 kts | 126° |
| 2026-05-01 08:51 | 46.30703 | -0.96599 | 2479 ft | 225 kts | 126° |
| 2026-05-01 08:51 | 46.29797 | -0.94807 | 2502 ft | 218 kts | 127° |
| 2026-05-01 08:51 | 46.28907 | -0.93046 | 2505 ft | 217 kts | 127° |
| 2026-05-01 08:52 | 46.27949 | -0.91418 | 2486 ft | 209 kts | 145° |
| 2026-05-01 08:52 | 46.26622 | -0.90758 | 2498 ft | 203 kts | 179° |
| 2026-05-01 08:52 | 46.25248 | -0.91151 | 2514 ft | 204 kts | 203° |
| 2026-05-01 08:52 | 46.23969 | -0.92075 | 2505 ft | 206 kts | 207° |
| 2026-05-01 08:53 | 46.22709 | -0.93060 | 2504 ft | 206 kts | 208° |
| 2026-05-01 08:53 | 46.21447 | -0.94044 | 2500 ft | 206 kts | 207° |
| 2026-05-01 08:53 | 46.20191 | -0.95014 | 2486 ft | 201 kts | 207° |
| 2026-05-01 08:53 | 46.18993 | -0.95935 | 2493 ft | 189 kts | 207° |
| 2026-05-01 08:54 | 46.17871 | -0.96813 | 2490 ft | 177 kts | 213° |
| 2026-05-01 08:54 | 46.16870 | -0.97844 | 2506 ft | 179 kts | 208° |
| 2026-05-01 08:54 | 46.15916 | -0.98956 | 2479 ft | 179 kts | 241° |
| 2026-05-01 08:54 | 46.15822 | -1.00666 | 2492 ft | 176 kts | 293° |
| 2026-05-01 08:55 | 46.16568 | -1.02056 | 2471 ft | 180 kts | 308° |
| 2026-05-01 08:55 | 46.17145 | -1.03678 | 2269 ft | 182 kts | 288° |
| 2026-05-01 08:55 | 46.17414 | -1.05441 | 2022 ft | 175 kts | 278° |
| 2026-05-01 08:55 | 46.17557 | -1.07141 | 1769 ft | 166 kts | 273° |
| 2026-05-01 08:56 | 46.17613 | -1.08735 | 1572 ft | 155 kts | 271° |
| 2026-05-01 08:56 | 46.17655 | -1.10264 | 1311 ft | 149 kts | 271° |
| 2026-05-01 08:56 | 46.17696 | -1.11727 | 1097 ft | 145 kts | 271° |
| 2026-05-01 08:56 | 46.17738 | -1.13183 | 906 ft | 145 kts | 271° |
| 2026-05-01 08:57 | 46.17778 | -1.14605 | 701 ft | 143 kts | 272° |
| 2026-05-01 08:57 | 46.17820 | -1.16043 | 505 ft | 140 kts | 272° |
| 2026-05-01 08:57 | 46.17860 | -1.17438 | 308 ft | 139 kts | 272° |
| 2026-05-01 08:57 | 46.17898 | -1.18827 | 113 ft | 139 kts | 272° |
| 2026-05-01 08:58 | 46.17937 | -1.20145 | 76 ft | 110 kts | 272° |
| 2026-05-01 08:58 | 46.17955 | -1.20760 | 75 ft | 26 kts | 271° |
| 2026-05-01 08:58 | 46.17951 | -1.20882 | 71 ft | 4 kts | 323° |
| 2026-05-01 08:58 | 46.17964 | -1.20852 | 65 ft | 5 kts | 96° |
| 2026-05-01 08:59 | 46.17958 | -1.20768 | 65 ft | 13 kts | 96° |
| 2026-05-01 08:59 | 46.17950 | -1.20570 | 72 ft | 25 kts | 92° |
| 2026-05-01 08:59 | 46.17942 | -1.20291 | 65 ft | 31 kts | 92° |
| 2026-05-01 08:59 | 46.17932 | -1.19978 | 74 ft | 31 kts | 92° |
| 2026-05-01 09:00 | 46.17924 | -1.19688 | 76 ft | 27 kts | 93° |
| 2026-05-01 09:00 | 46.17911 | -1.19515 | 68 ft | 13 kts | 124° |
| 2026-05-01 09:00 | 46.17830 | -1.19495 | 67 ft | 11 kts | 182° |
| 2026-05-01 09:00 | 46.17762 | -1.19499 | 73 ft | 7 kts | 182° |
| 2026-05-01 09:01 | 46.17714 | -1.19493 | 74 ft | 7 kts | 148° |
| 2026-05-01 09:01 | 46.17691 | -1.19433 | 72 ft | 7 kts | 95° |
| 2026-05-01 09:01 | 46.17678 | -1.19389 | 70 ft | 6 kts | 156° |
| 2026-05-01 09:01 | 46.17648 | -1.19397 | 74 ft | 4 kts | 218° |
| 2026-05-01 09:02 | 46.17647 | -1.19421 | 69 ft | 1 kts | 297° |
| 2026-05-01 09:02 | 46.17651 | -1.19425 | 70 ft | 0 kts | 322° |
| 2026-05-01 09:03 | 46.17651 | -1.19424 | 70 ft | 0 kts | 318° |